Time;durP1;ratioP1;P1;durP2;ratioP2;P2;SDS_P1;SDS_P2;PMS_P1;PMS_P2;Temp;Humidity;BMP_temperature;BMP_pressure;BME280_temperature;BME280_humidity;BME280_pressure;Samples;Min_cycle;Max_cycle;Signal;HPM_P1;HPM_P2
2022/07/09 00:01:38;;;;;;;2.88;1.88;;;18.10;98.40;;;;;;5071240;28;20386;-83
2022/07/09 00:04:03;;;;;;;4.38;1.75;;;18.10;98.40;;;;;;5062236;28;20486;-82
2022/07/09 00:06:29;;;;;;;2.60;1.98;;;18.10;98.50;;;;;;5054262;28;20028;-81
2022/07/09 00:08:55;;;;;;;3.38;1.70;;;18.20;98.50;;;;;;5072437;28;20414;-83
2022/07/09 00:11:20;;;;;;;3.00;1.90;;;18.20;98.50;;;;;;5054679;28;20040;-81
2022/07/09 00:13:46;;;;;;;2.80;2.20;;;18.20;98.50;;;;;;5072517;28;20029;-88
2022/07/09 00:16:11;;;;;;;3.78;1.92;;;18.20;98.40;;;;;;5053981;28;20024;-83
2022/07/09 00:18:37;;;;;;;3.75;1.75;;;18.20;98.40;;;;;;5054515;28;20481;-82
2022/07/09 00:21:02;;;;;;;4.32;1.98;;;18.20;98.40;;;;;;5072035;28;20024;-82
2022/07/09 00:23:28;;;;;;;2.53;1.60;;;18.20;98.40;;;;;;5072099;28;20032;-81
2022/07/09 00:25:53;;;;;;;2.78;1.60;;;18.20;98.30;;;;;;5071864;28;20108;-81
2022/07/09 00:28:19;;;;;;;3.88;1.90;;;18.20;98.30;;;;;;5072595;28;20036;-84
2022/07/09 00:30:44;;;;;;;2.55;1.45;;;18.20;98.30;;;;;;5071895;28;20076;-83
2022/07/09 00:33:10;;;;;;;5.22;1.63;;;18.20;98.30;;;;;;5074213;28;20040;-82
2022/07/09 00:35:35;;;;;;;2.92;1.73;;;18.20;98.40;;;;;;5078321;28;20029;-80
2022/07/09 00:38:01;;;;;;;2.63;1.58;;;18.10;98.40;;;;;;5060841;28;20047;-86
2022/07/09 00:40:26;;;;;;;1.80;1.55;;;18.10;98.50;;;;;;5060685;28;20450;-79
2022/07/09 00:42:52;;;;;;;4.72;1.67;;;18.10;98.50;;;;;;5056124;28;20031;-83
2022/07/09 00:45:17;;;;;;;1.50;1.40;;;18.00;98.50;;;;;;5054801;28;20067;-84
2022/07/09 00:47:43;;;;;;;4.13;1.92;;;18.00;98.50;;;;;;5054069;28;20028;-85
2022/07/09 00:50:09;;;;;;;2.38;1.88;;;18.00;98.70;;;;;;5072413;28;20088;-82
2022/07/09 00:52:37;;;;;;;2.90;1.90;;;18.00;98.80;;;;;;5055938;28;20055;-82
2022/07/09 00:55:04;;;;;;;2.30;1.83;;;17.90;98.80;;;;;;5075510;28;20032;-83
2022/07/09 00:57:31;;;;;;;8.43;2.17;;;17.90;98.90;;;;;;5072902;28;20059;-80
2022/07/09 00:59:57;;;;;;;4.20;2.00;;;17.90;99.10;;;;;;5055499;28;20035;-82
2022/07/09 01:02:23;;;;;;;3.15;1.90;;;17.80;99.30;;;;;;5053754;28;20393;-83
2022/07/09 01:04:48;;;;;;;4.55;2.20;;;17.80;99.40;;;;;;5072202;28;20029;-83
2022/07/09 01:07:14;;;;;;;3.20;1.92;;;17.70;99.50;;;;;;5070434;28;20037;-82
2022/07/09 01:09:40;;;;;;;4.88;2.25;;;17.80;99.50;;;;;;5053405;28;20743;-83
2022/07/09 01:12:07;;;;;;;3.75;1.42;;;17.80;99.50;;;;;;5071709;28;20025;-83
2022/07/09 01:14:32;;;;;;;6.32;2.00;;;17.80;99.50;;;;;;5071604;28;20040;-85
2022/07/09 01:17:00;;;;;;;2.45;1.45;;;17.80;99.50;;;;;;5053227;28;20024;-82
2022/07/09 01:19:27;;;;;;;1.83;1.48;;;17.80;99.50;;;;;;5071109;28;20151;-80
2022/07/09 01:21:54;;;;;;;4.88;1.70;;;17.80;99.50;;;;;;5070787;28;20040;-80
2022/07/09 01:24:20;;;;;;;2.95;1.48;;;17.80;99.50;;;;;;5070965;28;20033;-81
2022/07/09 01:26:45;;;;;;;2.35;1.73;;;17.80;99.40;;;;;;5052531;28;20078;-81
2022/07/09 01:29:11;;;;;;;4.45;2.25;;;17.80;99.50;;;;;;5053215;28;20467;-83
2022/07/09 01:31:36;;;;;;;4.13;1.63;;;17.80;99.50;;;;;;5070603;28;20035;-81
2022/07/09 01:34:02;;;;;;;3.13;2.08;;;17.70;99.50;;;;;;5052535;28;20098;-81
2022/07/09 01:36:28;;;;;;;3.70;1.63;;;17.70;99.50;;;;;;5070297;28;20059;-83
2022/07/09 01:38:53;;;;;;;3.85;1.52;;;17.70;99.60;;;;;;5053277;28;20042;-82
2022/07/09 01:41:19;;;;;;;3.58;1.63;;;17.70;99.60;;;;;;5052349;28;20123;-80
2022/07/09 01:43:44;;;;;;;6.32;1.80;;;17.60;99.60;;;;;;5052451;28;20146;-81
2022/07/09 01:46:10;;;;;;;3.50;1.80;;;17.60;99.60;;;;;;5052343;28;20028;-80
2022/07/09 01:48:35;;;;;;;3.53;1.70;;;17.70;99.70;;;;;;5070926;28;20386;-81
2022/07/09 01:51:01;;;;;;;4.30;2.05;;;17.70;99.70;;;;;;5052882;28;20028;-80
2022/07/09 01:53:27;;;;;;;5.30;1.90;;;17.70;99.80;;;;;;5052805;28;20087;-83
2022/07/09 01:55:52;;;;;;;5.80;2.38;;;17.70;99.70;;;;;;5052409;28;20034;-82
2022/07/09 01:58:18;;;;;;;2.50;1.60;;;17.70;99.70;;;;;;5052771;28;20043;-81
2022/07/09 02:00:44;;;;;;;4.90;1.67;;;17.70;99.70;;;;;;5085700;28;20032;-81
2022/07/09 02:03:09;;;;;;;3.22;2.00;;;17.70;99.70;;;;;;5052500;28;20116;-85
2022/07/09 02:05:35;;;;;;;3.08;2.15;;;17.70;99.60;;;;;;5053709;28;20354;-82
2022/07/09 02:08:01;;;;;;;5.20;2.53;;;17.60;99.70;;;;;;5052461;28;20490;-83
2022/07/09 02:10:26;;;;;;;3.20;1.73;;;17.60;99.70;;;;;;5051887;28;20035;-81
2022/07/09 02:12:52;;;;;;;4.53;2.17;;;17.60;99.80;;;;;;5052109;28;20028;-82
2022/07/09 02:15:17;;;;;;;3.55;1.70;;;17.60;99.80;;;;;;5051970;28;20025;-83
2022/07/09 02:17:43;;;;;;;2.92;1.67;;;17.60;99.80;;;;;;5070260;28;20074;-81
2022/07/09 02:20:09;;;;;;;3.70;2.22;;;17.50;99.90;;;;;;5070798;28;20103;-83
2022/07/09 02:22:35;;;;;;;4.00;1.98;;;17.50;99.90;;;;;;5069550;28;20385;-84
2022/07/09 02:25:01;;;;;;;3.45;1.77;;;17.50;99.90;;;;;;5052466;28;20131;-80
2022/07/09 02:27:26;;;;;;;7.38;1.83;;;17.50;99.90;;;;;;5052068;28;20530;-81
2022/07/09 02:29:52;;;;;;;2.30;2.03;;;17.50;99.90;;;;;;5070621;28;20382;-84
2022/07/09 02:32:17;;;;;;;4.70;1.60;;;17.50;99.90;;;;;;5051946;28;20033;-84
2022/07/09 02:34:43;;;;;;;5.88;2.50;;;17.50;99.90;;;;;;5052440;28;20039;-81
2022/07/09 02:37:08;;;;;;;2.33;1.73;;;17.50;99.90;;;;;;5069764;28;20363;-83
2022/07/09 02:39:34;;;;;;;2.35;1.67;;;17.50;99.90;;;;;;5052547;28;20039;-81
2022/07/09 02:42:00;;;;;;;2.88;1.70;;;17.50;99.90;;;;;;5070416;28;20047;-83
2022/07/09 02:44:25;;;;;;;5.32;2.20;;;17.50;99.90;;;;;;5052233;28;20478;-80
2022/07/09 02:46:51;;;;;;;3.47;2.03;;;17.50;99.90;;;;;;5069389;28;20021;-82
2022/07/09 02:49:16;;;;;;;3.42;2.33;;;17.50;99.90;;;;;;5070372;28;20111;-80
2022/07/09 02:51:42;;;;;;;4.57;1.95;;;17.50;99.90;;;;;;5069547;28;20029;-80
2022/07/09 02:54:07;;;;;;;6.88;2.80;;;17.40;99.90;;;;;;5052501;28;20035;-82
2022/07/09 02:56:33;;;;;;;3.10;2.20;;;17.40;99.90;;;;;;5069141;28;20033;-83
2022/07/09 02:58:59;;;;;;;3.55;1.80;;;17.40;99.90;;;;;;5052296;28;20025;-81
2022/07/09 03:01:24;;;;;;;3.08;2.10;;;17.40;99.90;;;;;;5051123;28;20033;-80
2022/07/09 03:03:50;;;;;;;6.05;2.15;;;17.30;99.90;;;;;;5051919;28;20041;-83
2022/07/09 03:06:16;;;;;;;4.25;2.17;;;17.30;99.90;;;;;;5051204;28;20028;-83
2022/07/09 03:08:41;;;;;;;6.03;2.20;;;17.30;99.90;;;;;;5051405;28;20021;-81
2022/07/09 03:11:07;;;;;;;3.28;2.03;;;17.20;99.90;;;;;;5051731;28;20036;-85
2022/07/09 03:13:36;;;;;;;2.70;2.00;;;17.20;99.90;;;;;;5069630;28;20025;-83
2022/07/09 03:16:02;;;;;;;5.22;2.30;;;17.20;99.90;;;;;;5069539;28;20081;-81
2022/07/09 03:18:28;;;;;;;6.72;3.17;;;17.20;99.90;;;;;;5051968;28;20028;-81
2022/07/09 03:20:53;;;;;;;4.95;2.83;;;17.10;99.90;;;;;;5070733;28;20039;-80
2022/07/09 03:23:19;;;;;;;6.25;3.15;;;17.10;99.90;;;;;;5055417;28;20542;-81
2022/07/09 03:25:44;;;;;;;3.28;1.90;;;17.10;99.90;;;;;;5054667;28;20032;-82
2022/07/09 03:28:10;;;;;;;6.30;2.38;;;17.10;99.90;;;;;;5073679;28;20673;-82
2022/07/09 03:30:36;;;;;;;5.82;2.50;;;17.10;99.90;;;;;;5055098;28;20032;-80
2022/07/09 03:33:01;;;;;;;3.55;2.28;;;17.10;99.90;;;;;;5072907;28;20082;-80
2022/07/09 03:35:27;;;;;;;3.10;2.40;;;17.10;99.90;;;;;;5072601;28;20047;-81
2022/07/09 03:37:52;;;;;;;4.82;1.70;;;17.20;99.90;;;;;;5055167;28;20033;-81
2022/07/09 03:40:18;;;;;;;5.97;2.67;;;17.20;99.90;;;;;;5055598;28;20097;-80
2022/07/09 03:42:44;;;;;;;8.02;2.40;;;17.20;99.90;;;;;;5073133;28;20037;-81
2022/07/09 03:45:10;;;;;;;3.33;2.10;;;17.30;99.90;;;;;;5055473;28;20053;-80
2022/07/09 03:47:35;;;;;;;3.35;1.90;;;17.30;99.90;;;;;;5054447;28;20501;-80
2022/07/09 03:50:01;;;;;;;3.33;1.80;;;17.30;99.90;;;;;;5073252;28;20032;-85
2022/07/09 03:52:26;;;;;;;4.97;2.13;;;17.30;99.90;;;;;;5054539;28;20115;-82
2022/07/09 03:54:52;;;;;;;3.22;1.95;;;17.40;99.90;;;;;;5055336;28;20018;-81
2022/07/09 03:57:18;;;;;;;3.63;1.95;;;17.40;99.90;;;;;;5054768;28;20024;-81
2022/07/09 03:59:43;;;;;;;4.88;2.20;;;17.30;99.90;;;;;;5073255;28;20033;-81
2022/07/09 04:02:09;;;;;;;4.25;1.92;;;17.40;99.90;;;;;;5073350;28;20064;-83
2022/07/09 04:04:34;;;;;;;4.65;1.92;;;17.40;99.90;;;;;;5073553;28;20044;-84
2022/07/09 04:06:59;;;;;;;5.22;2.67;;;17.40;99.90;;;;;;5057467;28;20040;-83
2022/07/09 04:09:25;;;;;;;5.40;1.88;;;17.40;99.90;;;;;;5077742;28;20081;-82
2022/07/09 04:11:51;;;;;;;4.07;1.58;;;17.50;99.90;;;;;;5056473;28;20052;-82
2022/07/09 04:14:19;;;;;;;3.85;2.15;;;17.50;99.90;;;;;;5056508;28;20021;-83
2022/07/09 04:16:45;;;;;;;2.22;1.52;;;17.50;99.90;;;;;;5072197;28;20028;-81
2022/07/09 04:19:10;;;;;;;2.58;1.80;;;17.60;99.90;;;;;;5072801;28;20402;-83
2022/07/09 04:21:36;;;;;;;3.75;1.67;;;17.60;99.90;;;;;;5072185;28;20082;-82
2022/07/09 04:24:01;;;;;;;3.80;2.05;;;17.60;99.90;;;;;;5072760;28;20482;-84
2022/07/09 04:26:27;;;;;;;6.50;2.20;;;17.60;99.90;;;;;;5053574;28;20174;-81
2022/07/09 04:28:52;;;;;;;5.07;2.28;;;17.60;99.90;;;;;;5054941;28;20029;-85
2022/07/09 04:31:19;;;;;;;5.22;1.48;;;17.70;99.90;;;;;;5072177;28;20025;-86
2022/07/09 04:33:45;;;;;;;3.17;1.73;;;17.80;99.90;;;;;;5075129;28;20020;-85
2022/07/09 04:36:10;;;;;;;4.18;1.92;;;17.80;99.90;;;;;;5059640;28;20033;-82
2022/07/09 04:38:36;;;;;;;2.55;1.85;;;17.90;99.90;;;;;;5061474;28;20039;-83
2022/07/09 04:41:02;;;;;;;4.75;1.80;;;18.00;99.90;;;;;;5057782;28;20047;-80
2022/07/09 04:43:27;;;;;;;3.05;1.67;;;18.10;99.90;;;;;;5059533;28;20470;-82
2022/07/09 04:45:53;;;;;;;5.93;2.03;;;18.20;99.80;;;;;;5076258;28;20025;-82
2022/07/09 04:48:18;;;;;;;5.45;1.90;;;18.20;99.60;;;;;;5057889;28;20051;-82
2022/07/09 04:50:44;;;;;;;2.88;2.05;;;18.30;99.70;;;;;;5075393;28;20482;-81
2022/07/09 04:53:09;;;;;;;3.30;1.73;;;18.30;99.50;;;;;;5074288;28;20044;-81
2022/07/09 04:55:35;;;;;;;4.22;2.13;;;18.20;99.50;;;;;;5055810;28;20123;-83
2022/07/09 04:58:00;;;;;;;4.60;2.60;;;18.30;99.50;;;;;;5072539;28;20068;-81
2022/07/09 05:00:26;;;;;;;5.93;2.25;;;18.20;99.50;;;;;;5072133;28;20474;-81
2022/07/09 05:02:51;;;;;;;3.75;2.00;;;18.10;99.70;;;;;;5070772;28;20118;-82
2022/07/09 05:05:21;;;;;;;5.82;2.22;;;18.10;99.90;;;;;;5071414;28;20036;-83
2022/07/09 05:07:47;;;;;;;2.42;2.10;;;18.00;99.90;;;;;;5071789;28;20158;-85
2022/07/09 05:10:13;;;;;;;3.28;2.30;;;17.90;99.90;;;;;;5071464;28;20107;-81
2022/07/09 05:12:39;;;;;;;3.33;2.13;;;18.00;99.90;;;;;;5053259;28;20123;-84
2022/07/09 05:15:05;;;;;;;6.63;2.20;;;18.00;99.90;;;;;;5053356;28;20119;-83
2022/07/09 05:17:35;;;;;;;4.70;1.95;;;18.00;99.90;;;;;;5052924;28;20513;-82
2022/07/09 05:20:03;;;;;;;3.85;2.15;;;18.00;99.90;;;;;;5053202;28;20032;-82
2022/07/09 05:22:30;;;;;;;6.00;3.33;;;18.10;99.90;;;;;;5053069;28;20109;-81
2022/07/09 05:24:56;;;;;;;5.63;3.00;;;18.10;99.90;;;;;;5071178;28;20596;-85
2022/07/09 05:27:21;;;;;;;6.32;2.80;;;18.20;99.80;;;;;;5071383;28;20021;-82
2022/07/09 05:29:46;;;;;;;7.80;3.25;;;18.20;99.60;;;;;;5053447;28;20024;-84
2022/07/09 05:32:12;;;;;;;4.65;3.00;;;18.10;99.90;;;;;;5052652;28;20044;-82
2022/07/09 05:34:37;;;;;;;6.18;3.15;;;18.10;99.90;;;;;;5071321;28;20025;-82
2022/07/09 05:37:03;;;;;;;5.45;2.20;;;18.20;99.70;;;;;;5070734;28;20057;-81
2022/07/09 05:39:29;;;;;;;6.80;2.67;;;18.20;99.50;;;;;;5052687;28;20029;-86
2022/07/09 05:41:54;;;;;;;4.82;3.05;;;18.20;99.60;;;;;;5052744;28;20147;-82
2022/07/09 05:44:19;;;;;;;4.65;2.42;;;18.20;99.60;;;;;;5052372;28;20539;-81
2022/07/09 05:46:45;;;;;;;9.93;3.83;;;18.20;99.70;;;;;;5052440;28;20048;-84
2022/07/09 05:49:10;;;;;;;5.57;2.90;;;18.30;99.60;;;;;;5053154;28;20040;-82
2022/07/09 05:51:36;;;;;;;4.20;2.25;;;18.40;99.30;;;;;;5053061;28;20025;-82
2022/07/09 05:54:02;;;;;;;5.05;2.38;;;18.50;99.20;;;;;;5070843;28;20025;-82
2022/07/09 05:56:27;;;;;;;5.80;2.50;;;18.50;99.00;;;;;;5052082;28;20016;-84
2022/07/09 05:58:52;;;;;;;5.70;2.88;;;18.50;99.00;;;;;;5070647;28;20434;-82
2022/07/09 06:01:18;;;;;;;11.02;2.53;;;18.50;99.00;;;;;;5070484;28;20032;-82
2022/07/09 06:03:44;;;;;;;4.38;2.90;;;18.50;98.80;;;;;;5070607;28;20033;-82
2022/07/09 06:06:10;;;;;;;6.55;3.13;;;18.60;98.60;;;;;;5052203;28;20049;-81
2022/07/09 06:08:36;;;;;;;7.95;3.28;;;18.60;98.40;;;;;;5070888;28;20029;-82
2022/07/09 06:11:02;;;;;;;5.93;2.38;;;18.60;98.30;;;;;;5070275;28;20115;-81
2022/07/09 06:13:28;;;;;;;3.35;2.83;;;18.60;98.40;;;;;;5052422;28;20029;-81
2022/07/09 06:15:53;;;;;;;7.72;2.78;;;18.70;98.20;;;;;;5062728;28;20032;-84
2022/07/09 06:18:19;;;;;;;5.65;3.03;;;18.60;98.10;;;;;;5070453;28;20485;-81
2022/07/09 06:20:45;;;;;;;5.80;2.95;;;18.60;98.00;;;;;;5070118;28;20039;-81
2022/07/09 06:23:11;;;;;;;6.00;2.75;;;18.50;98.10;;;;;;5070296;28;20115;-82
2022/07/09 06:25:37;;;;;;;6.50;3.35;;;18.40;98.30;;;;;;5069451;28;20381;-84
2022/07/09 06:28:03;;;;;;;6.00;2.90;;;18.40;98.20;;;;;;5052311;28;20028;-81
2022/07/09 06:30:29;;;;;;;6.82;3.25;;;18.40;98.30;;;;;;5070357;28;20475;-81
2022/07/09 06:32:54;;;;;;;6.25;3.30;;;18.40;98.60;;;;;;5051698;28;20086;-81
2022/07/09 06:35:20;;;;;;;7.40;3.45;;;18.40;98.50;;;;;;5070327;28;20272;-82
2022/07/09 06:37:46;;;;;;;3.90;2.08;;;18.40;98.40;;;;;;5070022;28;20039;-83
2022/07/09 06:40:12;;;;;;;6.45;2.85;;;18.40;98.40;;;;;;5052481;28;20722;-86
2022/07/09 06:42:38;;;;;;;6.38;2.97;;;18.60;98.50;;;;;;5051601;28;20040;-86
2022/07/09 06:45:04;;;;;;;4.03;2.22;;;18.60;98.00;;;;;;5052535;28;20046;-82
2022/07/09 06:47:29;;;;;;;5.55;2.28;;;18.70;98.10;;;;;;5051492;28;20020;-83
2022/07/09 06:49:55;;;;;;;5.18;2.50;;;18.80;97.70;;;;;;5052138;28;20036;-85
2022/07/09 06:52:20;;;;;;;11.32;2.80;;;18.80;97.40;;;;;;5069978;28;20044;-86
2022/07/09 06:54:46;;;;;;;4.97;3.00;;;18.70;97.40;;;;;;5070162;28;20036;-83
2022/07/09 06:57:13;;;;;;;3.58;2.35;;;18.70;97.60;;;;;;5073202;28;20032;-83
2022/07/09 06:59:39;;;;;;;5.22;2.83;;;18.80;98.10;;;;;;5056089;28;20078;-88
2022/07/09 07:02:04;;;;;;;8.35;2.95;;;19.00;97.60;;;;;;5055636;28;20032;-85
2022/07/09 07:04:30;;;;;;;3.90;2.65;;;19.00;97.10;;;;;;5075033;28;20569;-83
2022/07/09 07:06:55;;;;;;;6.22;3.47;;;19.00;97.10;;;;;;5056777;28;20407;-86
2022/07/09 07:09:21;;;;;;;10.27;2.45;;;19.10;96.90;;;;;;5056267;28;20473;-83
2022/07/09 07:11:48;;;;;;;4.68;2.60;;;19.10;97.10;;;;;;5073504;28;20474;-83
2022/07/09 07:14:15;;;;;;;4.63;2.70;;;19.20;96.90;;;;;;5074435;28;20390;-80
2022/07/09 07:16:41;;;;;;;6.65;2.67;;;19.30;96.80;;;;;;5073537;28;20025;-83
2022/07/09 07:19:06;;;;;;;3.75;2.47;;;19.40;96.60;;;;;;5056059;28;20036;-83
2022/07/09 07:21:32;;;;;;;5.43;2.83;;;19.50;96.50;;;;;;5055718;28;20394;-85
2022/07/09 07:23:57;;;;;;;6.30;2.85;;;19.60;96.10;;;;;;5074146;28;20470;-82
2022/07/09 07:26:23;;;;;;;6.68;2.63;;;19.70;96.10;;;;;;5056120;28;20103;-88
2022/07/09 07:28:49;;;;;;;8.55;3.08;;;19.80;96.20;;;;;;5074850;28;20107;-80
2022/07/09 07:31:15;;;;;;;7.25;3.05;;;19.70;96.00;;;;;;5074073;28;20111;-82
2022/07/09 07:33:40;;;;;;;3.80;2.53;;;19.70;95.80;;;;;;5056856;28;20033;-84
2022/07/09 07:36:06;;;;;;;6.22;3.15;;;19.60;96.00;;;;;;5058863;28;20093;-81
2022/07/09 07:38:33;;;;;;;5.65;3.20;;;19.60;95.70;;;;;;5058739;28;20074;-80
2022/07/09 07:40:58;;;;;;;6.82;2.75;;;19.60;95.90;;;;;;5088640;28;20033;-81
2022/07/09 07:43:24;;;;;;;6.28;3.45;;;19.50;95.90;;;;;;5055819;28;20029;-81
2022/07/09 07:45:49;;;;;;;5.15;3.33;;;19.40;96.00;;;;;;5054967;28;20032;-81
2022/07/09 07:48:15;;;;;;;7.80;3.58;;;19.40;96.10;;;;;;5055595;28;20095;-82
2022/07/09 07:50:40;;;;;;;6.20;3.05;;;19.40;96.20;;;;;;5073211;28;20040;-82
2022/07/09 07:53:06;;;;;;;7.13;4.10;;;19.40;96.00;;;;;;5055434;28;20082;-83
2022/07/09 07:55:32;;;;;;;4.53;3.00;;;19.50;96.20;;;;;;5072451;28;20078;-82
2022/07/09 07:57:57;;;;;;;8.90;3.88;;;19.50;96.00;;;;;;5074108;28;20024;-83
2022/07/09 08:00:23;;;;;;;10.32;3.83;;;19.70;96.10;;;;;;5055310;28;20039;-86
2022/07/09 08:02:48;;;;;;;10.75;3.50;;;19.80;95.60;;;;;;5054754;28;20116;-83
2022/07/09 08:05:14;;;;;;;6.25;3.15;;;19.90;95.30;;;;;;5072900;28;20029;-83
2022/07/09 08:07:39;;;;;;;7.75;3.40;;;19.90;95.40;;;;;;5073187;28;20035;-83
2022/07/09 08:10:05;;;;;;;5.00;3.05;;;20.10;95.50;;;;;;5074822;28;20033;-87
2022/07/09 08:12:31;;;;;;;8.00;4.47;;;20.20;95.30;;;;;;5055029;28;20079;-82
2022/07/09 08:14:56;;;;;;;7.97;4.55;;;20.20;95.20;;;;;;5073258;28;20025;-81
2022/07/09 08:17:22;;;;;;;6.20;4.10;;;20.20;95.20;;;;;;5054521;28;20368;-82
2022/07/09 08:19:47;;;;;;;6.82;3.88;;;20.40;94.60;;;;;;5056025;28;20025;-80
2022/07/09 08:22:13;;;;;;;9.90;4.82;;;20.40;94.70;;;;;;5058451;28;20092;-81
2022/07/09 08:24:38;;;;;;;8.93;4.85;;;20.50;94.50;;;;;;5075990;28;20059;-81
2022/07/09 08:27:04;;;;;;;6.97;4.45;;;20.60;94.60;;;;;;5074574;28;20028;-81
2022/07/09 08:29:29;;;;;;;6.82;4.65;;;20.60;94.20;;;;;;5056770;28;20028;-82
2022/07/09 08:31:55;;;;;;;5.95;4.30;;;20.50;94.10;;;;;;5054476;28;20060;-83
2022/07/09 08:34:20;;;;;;;6.25;3.83;;;20.40;94.40;;;;;;5054878;28;20127;-82
2022/07/09 08:36:46;;;;;;;4.90;3.47;;;20.30;94.40;;;;;;5053264;28;20028;-81
2022/07/09 08:39:12;;;;;;;6.22;3.78;;;20.30;94.40;;;;;;5055121;28;20075;-85
2022/07/09 08:41:38;;;;;;;6.22;3.80;;;20.20;94.00;;;;;;5072192;28;20474;-82
2022/07/09 08:44:04;;;;;;;6.22;4.47;;;20.10;94.20;;;;;;5054810;28;20067;-81
2022/07/09 08:46:31;;;;;;;5.80;3.63;;;20.20;94.60;;;;;;5053262;28;20432;-82
2022/07/09 08:48:58;;;;;;;5.03;3.53;;;20.10;94.40;;;;;;5054474;28;20649;-84
2022/07/09 08:51:24;;;;;;;7.63;3.33;;;20.10;94.40;;;;;;5054131;28;20498;-81
2022/07/09 08:53:49;;;;;;;5.20;3.70;;;20.20;94.40;;;;;;5053833;28;20035;-83
2022/07/09 08:56:15;;;;;;;5.22;3.40;;;20.10;94.40;;;;;;5053297;28;20029;-81
2022/07/09 08:58:41;;;;;;;4.90;3.70;;;20.10;94.70;;;;;;5071705;28;20052;-86
2022/07/09 09:01:07;;;;;;;7.57;3.13;;;20.20;94.60;;;;;;5072061;28;20066;-86
2022/07/09 09:03:33;;;;;;;6.72;4.30;;;20.20;94.70;;;;;;5054251;28;20039;-83
2022/07/09 09:06:04;;;;;;;5.35;3.33;;;20.30;94.50;;;;;;5053185;28;20029;-80
2022/07/09 09:08:35;;;;;;;5.70;3.43;;;20.40;94.80;;;;;;5054550;28;20111;-81
2022/07/09 09:11:00;;;;;;;5.38;2.88;;;20.50;94.80;;;;;;5053277;28;20545;-84
2022/07/09 09:13:26;;;;;;;3.05;2.25;;;20.70;94.00;;;;;;5072476;28;20035;-81
2022/07/09 09:16:03;;;;;;;6.25;2.60;;;20.80;93.90;;;;;;5053991;28;20020;-80
2022/07/09 09:18:28;;;;;;;4.57;2.30;;;21.00;93.80;;;;;;5054270;28;20028;-81
2022/07/09 09:20:54;;;;;;;5.13;2.05;;;21.10;93.60;;;;;;5073114;28;20035;-80
2022/07/09 09:23:19;;;;;;;3.25;2.10;;;21.20;93.10;;;;;;5054241;28;20055;-85
2022/07/09 09:25:45;;;;;;;3.00;2.03;;;21.20;93.10;;;;;;5053203;28;20075;-82
2022/07/09 09:28:14;;;;;;;4.50;2.85;;;21.30;93.60;;;;;;5053844;28;20530;-85
2022/07/09 09:30:43;;;;;;;7.15;2.40;;;21.30;93.10;;;;;;5053688;28;20024;-82
2022/07/09 09:33:09;;;;;;;5.75;2.00;;;21.40;93.80;;;;;;5055126;28;20489;-82
2022/07/09 09:35:41;;;;;;;2.75;1.95;;;21.60;93.10;;;;;;5070814;28;20338;-85
2022/07/09 09:38:06;;;;;;;4.25;2.10;;;21.60;92.90;;;;;;5053618;28;20498;-81
2022/07/09 09:40:32;;;;;;;4.93;2.38;;;21.80;92.50;;;;;;5053673;28;20074;-81
2022/07/09 09:43:01;;;;;;;6.43;2.30;;;21.90;92.50;;;;;;5053982;28;20033;-82
2022/07/09 09:45:27;;;;;;;5.40;1.55;;;22.00;93.00;;;;;;5071649;28;20060;-80
2022/07/09 09:47:53;;;;;;;3.47;1.80;;;22.10;92.00;;;;;;5054403;28;20378;-80
2022/07/09 09:50:21;;;;;;;3.95;2.10;;;22.30;91.50;;;;;;5087026;28;20029;-84
2022/07/09 09:52:48;;;;;;;3.35;1.98;;;22.30;91.70;;;;;;5053080;28;20061;-80
2022/07/09 09:55:15;;;;;;;2.40;1.67;;;22.30;91.50;;;;;;5071185;28;20028;-81
2022/07/09 09:57:41;;;;;;;2.00;1.60;;;22.20;91.40;;;;;;5052098;28;20428;-78
2022/07/09 10:00:08;;;;;;;2.78;1.48;;;22.20;91.60;;;;;;5053462;28;20024;-85
2022/07/09 10:02:35;;;;;;;4.47;1.65;;;22.40;91.80;;;;;;5052200;28;20048;-85
2022/07/09 10:05:01;;;;;;;2.35;1.60;;;22.50;91.40;;;;;;5052995;28;20116;-87
2022/07/09 10:07:27;;;;;;;1.92;1.50;;;22.60;91.40;;;;;;5069728;28;20178;-81
2022/07/09 10:09:54;;;;;;;2.40;1.67;;;22.90;91.30;;;;;;5071125;28;20029;-81
2022/07/09 10:12:27;;;;;;;2.15;1.30;;;23.10;90.80;;;;;;5053395;28;20123;-81
2022/07/09 10:14:53;;;;;;;4.63;1.40;;;23.20;91.10;;;;;;5052521;28;20082;-87
2022/07/09 10:17:19;;;;;;;2.50;1.23;;;23.30;90.90;;;;;;5052147;28;20033;-81
2022/07/09 10:19:56;;;;;;;3.83;1.15;;;23.30;90.20;;;;;;5052580;28;20032;-82
2022/07/09 10:22:34;;;;;;;2.00;1.35;;;23.30;90.50;;;;;;5085748;28;20094;-85
2022/07/09 10:24:59;;;;;;;2.30;1.17;;;23.30;90.10;;;;;;5052853;28;20064;-81
2022/07/09 10:27:25;;;;;;;2.65;1.33;;;23.20;90.60;;;;;;5052076;28;20059;-81
2022/07/09 10:29:56;;;;;;;1.42;1.10;;;23.30;89.90;;;;;;5052367;28;20035;-82
2022/07/09 10:32:42;;;;;;;1.75;0.93;;;23.40;89.80;;;;;;5052568;28;20060;-80
2022/07/09 10:35:08;;;;;;;2.58;1.33;;;23.40;89.40;;;;;;5070471;28;20020;-86
2022/07/09 10:37:42;;;;;;;3.28;1.30;;;23.50;90.00;;;;;;5069573;28;20043;-86
2022/07/09 10:40:15;;;;;;;2.47;0.93;;;23.60;90.00;;;;;;5070630;28;20024;-81
2022/07/09 10:42:56;;;;;;;1.80;0.82;;;23.50;89.40;;;;;;5052324;28;20406;-81
2022/07/09 10:45:26;;;;;;;2.45;1.45;;;23.40;89.30;;;;;;5052619;28;20041;-82
2022/07/09 10:47:54;;;;;;;2.38;1.02;;;23.30;89.60;;;;;;5052660;28;20074;-87
2022/07/09 10:50:20;;;;;;;1.52;1.17;;;23.30;88.90;;;;;;5052843;28;20032;-82
2022/07/09 10:52:46;;;;;;;1.92;1.00;;;23.20;89.90;;;;;;5052153;28;20036;-84
2022/07/09 10:55:11;;;;;;;1.02;0.73;;;23.10;89.70;;;;;;5052455;28;20043;-83
2022/07/09 10:57:37;;;;;;;1.38;1.17;;;22.90;90.00;;;;;;5052511;28;20021;-83
2022/07/09 11:00:03;;;;;;;1.48;1.10;;;22.80;90.50;;;;;;5053608;28;20021;-84
2022/07/09 11:02:29;;;;;;;1.50;0.90;;;22.80;90.60;;;;;;5089300;28;20063;-83
2022/07/09 11:04:54;;;;;;;2.70;0.90;;;22.60;90.40;;;;;;5059127;28;20025;-83
2022/07/09 11:07:24;;;;;;;1.35;0.90;;;22.50;90.70;;;;;;5054797;28;20020;-85
2022/07/09 11:09:51;;;;;;;1.20;1.00;;;22.40;90.70;;;;;;5069949;28;20359;-83
2022/07/09 11:12:18;;;;;;;1.88;0.80;;;22.30;90.70;;;;;;5070163;28;20039;-82
2022/07/09 11:14:45;;;;;;;3.17;0.93;;;22.20;91.40;;;;;;5085624;28;20029;-83
2022/07/09 11:17:14;;;;;;;2.03;0.80;;;22.20;91.10;;;;;;5085506;28;20035;-85
2022/07/09 11:19:40;;;;;;;2.22;0.82;;;22.30;91.10;;;;;;5052204;28;20024;-83
2022/07/09 11:22:05;;;;;;;1.35;0.70;;;22.40;90.90;;;;;;5051600;28;20045;-83
2022/07/09 11:24:31;;;;;;;0.90;0.50;;;22.40;90.90;;;;;;5070157;28;20041;-88
2022/07/09 11:27:02;;;;;;;1.25;0.50;;;22.60;90.60;;;;;;5051907;28;20428;-82
2022/07/09 11:29:27;;;;;;;1.40;0.90;;;22.70;90.30;;;;;;5052190;28;20119;-83
2022/07/09 11:31:53;;;;;;;2.22;0.50;;;22.80;90.00;;;;;;5069782;28;20434;-83
2022/07/09 11:34:20;;;;;;;3.30;0.70;;;22.80;90.20;;;;;;5051873;28;20024;-89
2022/07/09 11:36:48;;;;;;;0.98;0.70;;;22.80;90.00;;;;;;5068886;28;20482;-85
2022/07/09 11:39:30;;;;;;;0.60;0.50;;;22.80;90.50;;;;;;5069540;28;20028;-83
2022/07/09 11:41:58;;;;;;;1.67;0.70;;;22.80;89.90;;;;;;5071046;28;20066;-85
2022/07/09 11:44:33;;;;;;;3.60;0.88;;;22.80;89.50;;;;;;5055750;28;20410;-86
2022/07/09 11:47:11;;;;;;;1.10;0.60;;;22.70;90.10;;;;;;5055183;28;20082;-87
2022/07/09 11:49:43;;;;;;;2.33;0.70;;;22.70;90.10;;;;;;5073328;28;20023;-83
2022/07/09 11:52:22;;;;;;;2.88;0.50;;;22.80;90.10;;;;;;5073013;28;20062;-85
2022/07/09 11:54:56;;;;;;;0.90;0.55;;;22.80;90.00;;;;;;5073488;28;20025;-85
2022/07/09 11:57:22;;;;;;;1.23;0.60;;;22.80;89.40;;;;;;5054444;28;20032;-83
2022/07/09 11:59:47;;;;;;;2.95;0.93;;;22.80;90.00;;;;;;5055445;28;20028;-84
2022/07/09 12:02:25;;;;;;;2.90;1.00;;;22.90;90.60;;;;;;5052833;28;20123;-87
2022/07/09 12:04:51;;;;;;;2.72;1.00;;;22.90;90.90;;;;;;5064645;28;20028;-84
2022/07/09 12:07:17;;;;;;;3.25;1.05;;;23.00;91.10;;;;;;5054462;28;20029;-81
2022/07/09 12:09:42;;;;;;;3.10;1.02;;;23.10;91.00;;;;;;5072763;28;20037;-83
2022/07/09 12:12:08;;;;;;;1.98;0.98;;;23.10;90.60;;;;;;5054610;28;20434;-84
2022/07/09 12:14:33;;;;;;;1.20;0.90;;;23.00;90.70;;;;;;5073440;28;20036;-82
2022/07/09 12:16:59;;;;;;;1.42;0.88;;;23.00;91.00;;;;;;5053977;28;20027;-86
2022/07/09 12:19:25;;;;;;;3.03;1.48;;;23.00;91.20;;;;;;5054861;28;20028;-85
2022/07/09 12:21:50;;;;;;;3.38;1.20;;;22.90;91.30;;;;;;5054429;28;20481;-82
2022/07/09 12:24:16;;;;;;;2.83;1.20;;;23.00;91.60;;;;;;5072802;28;20036;-82
2022/07/09 12:26:41;;;;;;;2.75;1.08;;;23.10;91.30;;;;;;5071823;28;20033;-80
2022/07/09 12:29:07;;;;;;;1.67;0.85;;;23.20;91.50;;;;;;5054620;28;20060;-81
2022/07/09 12:31:36;;;;;;;1.20;0.98;;;23.30;91.40;;;;;;5072694;28;20033;-84
2022/07/09 12:34:02;;;;;;;2.17;1.20;;;23.40;91.40;;;;;;5072749;28;20029;-82
2022/07/09 12:36:27;;;;;;;2.90;0.80;;;23.50;91.10;;;;;;5053961;28;20029;-84
2022/07/09 12:38:53;;;;;;;2.28;0.80;;;23.60;90.00;;;;;;5054727;28;20036;-85
2022/07/09 12:41:18;;;;;;;1.30;0.70;;;23.50;90.20;;;;;;5054816;28;20044;-83